Time;durP1;ratioP1;P1;durP2;ratioP2;P2;SDS_P1;SDS_P2;PMS_P1;PMS_P2;Temp;Humidity;BMP_temperature;BMP_pressure;BME280_temperature;BME280_humidity;BME280_pressure;Samples;Min_cycle;Max_cycle;Signal;HPM_P1;HPM_P2
2021/09/30 00:01:47;;;;;;;6.80;3.10;;;;;;;8.61;100.00;101056.38;7378833;19;20494;-62
2021/09/30 00:04:17;;;;;;;6.67;4.27;;;;;;;8.59;100.00;101063.09;7400956;19;20689;-63
2021/09/30 00:06:46;;;;;;;11.20;4.97;;;;;;;8.61;100.00;101071.81;7365750;19;20403;-61
2021/09/30 00:09:16;;;;;;;5.70;3.30;;;;;;;8.55;100.00;101072.34;7402536;19;20390;-62
2021/09/30 00:11:53;;;;;;;5.37;2.90;;;;;;;8.55;100.00;101056.03;7368784;19;20429;-66
2021/09/30 00:14:25;;;;;;;4.43;2.83;;;;;;;8.53;100.00;101070.47;7398557;19;20403;-65
2021/09/30 00:17:07;;;;;;;4.63;3.40;;;;;;;8.52;100.00;101061.91;7371113;19;20425;-64
2021/09/30 00:33:21;;;;;;;5.37;3.70;;;;;;;8.66;100.00;101070.34;7370483;19;20510;-63
2021/09/30 00:36:01;;;;;;;6.60;3.30;;;;;;;8.60;100.00;101082.88;7401739;19;20456;-64
2021/09/30 00:41:19;;;;;;;11.80;4.47;;;;;;;8.70;100.00;101084.25;7395054;19;20383;-64
2021/09/30 00:46:44;;;;;;;9.47;2.93;;;;;;;8.68;100.00;101088.44;7387094;19;20473;-64
2021/09/30 00:49:23;;;;;;;10.40;4.50;;;;;;;8.71;100.00;101089.50;7401979;19;20376;-63
2021/09/30 00:51:58;;;;;;;8.87;4.67;;;;;;;8.73;100.00;101079.28;7394045;19;20422;-62
2021/09/30 01:52:03;;;;;;;5.07;2.47;;;;;;;8.79;100.00;101138.81;7396537;19;20474;-65
2021/09/30 01:58:42;;;;;;;10.13;3.10;;;;;;;8.81;100.00;101152.63;7383026;19;20419;-63
2021/09/30 02:20:29;;;;;;;16.53;1.90;;;;;;;8.81;100.00;101169.78;7398678;19;20378;-63
2021/09/30 02:28:47;;;;;;;3.30;1.43;;;;;;;8.68;100.00;101197.38;7398642;19;20407;-62
2021/09/30 02:58:41;;;;;;;5.83;1.13;;;;;;;8.55;100.00;101223.22;7398100;19;20379;-62
2021/09/30 03:01:13;;;;;;;4.73;0.93;;;;;;;8.54;100.00;101209.47;7393551;19;20392;-62
2021/09/30 03:03:44;;;;;;;7.90;2.10;;;;;;;8.58;100.00;101215.66;7397202;19;20422;-63
2021/09/30 03:06:16;;;;;;;9.50;1.83;;;;;;;8.50;100.00;101208.34;7394356;19;20399;-63
2021/09/30 03:08:47;;;;;;;7.70;1.30;;;;;;;8.49;100.00;101223.69;7398212;19;20460;-61
2021/09/30 03:11:19;;;;;;;17.20;2.70;;;;;;;8.58;100.00;101215.66;7391220;19;20415;-62
2021/09/30 03:13:50;;;;;;;5.63;1.30;;;;;;;8.52;100.00;101221.34;7399418;19;20419;-61
2021/09/30 03:16:24;;;;;;;5.03;1.50;;;;;;;8.50;100.00;101223.78;7393850;19;20419;-63
2021/09/30 03:18:57;;;;;;;7.83;1.50;;;;;;;8.48;100.00;101219.34;7398141;19;20392;-61
2021/09/30 03:24:15;;;;;;;7.50;1.63;;;;;;;8.48;100.00;101238.25;7396488;19;20407;-64
2021/09/30 03:26:45;;;;;;;12.80;1.83;;;;;;;8.51;100.00;101230.75;7381003;19;20419;-63
2021/09/30 03:29:16;;;;;;;11.07;1.27;;;;;;;8.49;100.00;101242.59;7399733;19;20402;-63
2021/09/30 03:31:47;;;;;;;10.60;1.10;;;;;;;8.46;100.00;101226.09;7394406;19;20424;-64
2021/09/30 03:34:16;;;;;;;10.50;1.30;;;;;;;8.43;100.00;101226.81;7396361;19;20438;-65
2021/09/30 03:36:48;;;;;;;8.27;1.83;;;;;;;8.43;100.00;101225.91;7392303;19;20434;-63
2021/09/30 03:39:23;;;;;;;9.63;0.80;;;;;;;8.36;100.00;101235.84;7404971;19;20396;-62
2021/09/30 03:41:53;;;;;;;11.43;1.47;;;;;;;8.38;100.00;101241.06;7396003;19;20473;-66
2021/09/30 03:44:23;;;;;;;9.70;2.30;;;;;;;8.42;100.00;101245.63;7402374;19;20412;-62
2021/09/30 03:46:53;;;;;;;7.53;1.27;;;;;;;8.37;100.00;101235.03;7400426;19;20411;-63
2021/09/30 03:49:27;;;;;;;5.80;1.33;;;;;;;8.34;100.00;101241.69;7404575;19;20455;-62
2021/09/30 03:52:05;;;;;;;5.83;1.10;;;;;;;8.29;100.00;101233.72;7397148;19;20928;-62
2021/09/30 03:54:40;;;;;;;8.33;0.90;;;;;;;8.34;100.00;101237.44;7401591;19;20470;-63
2021/09/30 03:57:22;;;;;;;3.40;0.87;;;;;;;8.32;100.00;101230.44;7396380;19;20423;-65
2021/09/30 03:59:50;;;;;;;9.00;1.57;;;;;;;8.35;100.00;101228.03;7404261;19;20447;-66
2021/09/30 04:02:19;;;;;;;12.73;1.33;;;;;;;8.34;100.00;101222.03;7398344;19;20737;-63
2021/09/30 04:04:49;;;;;;;4.27;1.53;;;;;;;8.37;100.00;101224.75;7408083;19;20688;-63
2021/09/30 04:07:22;;;;;;;3.53;0.67;;;;;;;8.33;100.00;101224.50;7396187;19;20427;-65
2021/09/30 04:09:51;;;;;;;2.90;0.80;;;;;;;8.31;100.00;101220.94;7403969;19;20864;-65
2021/09/30 04:12:21;;;;;;;7.10;0.90;;;;;;;8.32;100.00;101231.31;7396220;19;20420;-66
2021/09/30 04:14:50;;;;;;;5.33;1.77;;;;;;;8.37;100.00;101231.59;7403380;19;20411;-64
2021/09/30 04:17:20;;;;;;;4.03;1.10;;;;;;;8.36;100.00;101227.25;7399403;19;20423;-64
2021/09/30 04:19:49;;;;;;;5.63;1.20;;;;;;;8.35;100.00;101234.06;7403698;19;20921;-61
2021/09/30 04:22:21;;;;;;;2.30;0.80;;;;;;;8.34;100.00;101244.25;7386404;19;20490;-66
2021/09/30 04:24:51;;;;;;;2.03;0.83;;;;;;;8.33;100.00;101229.63;7403240;19;20388;-64
2021/09/30 04:27:20;;;;;;;15.03;1.30;;;;;;;8.41;100.00;101230.09;7373950;19;20506;-63
2021/09/30 04:29:50;;;;;;;13.93;1.40;;;;;;;8.37;100.00;101235.03;7402793;19;20455;-63
2021/09/30 04:32:20;;;;;;;4.83;0.90;;;;;;;8.33;100.00;101234.78;7399294;19;20479;-63
2021/09/30 04:34:49;;;;;;;9.20;1.13;;;;;;;8.42;100.00;101242.16;7402858;19;20459;-62
2021/09/30 04:37:22;;;;;;;3.57;1.37;;;;;;;8.41;100.00;101233.53;7395034;19;20411;-63
2021/09/30 04:39:51;;;;;;;3.73;0.80;;;;;;;8.38;100.00;101238.50;7402813;19;20388;-64
2021/09/30 04:42:21;;;;;;;4.87;1.13;;;;;;;8.44;100.00;101245.69;7394606;19;20737;-65
2021/09/30 04:44:50;;;;;;;8.40;1.27;;;;;;;8.40;100.00;101242.03;7402518;19;20729;-62
2021/09/30 04:47:20;;;;;;;4.07;0.93;;;;;;;8.45;100.00;101238.06;7398431;19;20714;-64
2021/09/30 04:49:50;;;;;;;3.00;1.20;;;;;;;8.38;100.00;101239.38;7400643;19;20463;-65
2021/09/30 04:52:22;;;;;;;7.07;1.43;;;;;;;8.41;100.00;101237.81;7394553;19;20962;-64
2021/09/30 04:54:52;;;;;;;5.83;1.10;;;;;;;8.39;100.00;101248.00;7402154;19;20451;-62
2021/09/30 04:57:21;;;;;;;5.20;0.93;;;;;;;8.38;100.00;101238.50;7394163;19;20411;-62
2021/09/30 04:59:51;;;;;;;10.23;1.37;;;;;;;8.42;100.00;101249.84;7402245;19;20459;-64
2021/09/30 05:02:20;;;;;;;4.97;1.20;;;;;;;8.40;100.00;101254.91;7394637;19;20426;-63
2021/09/30 05:04:50;;;;;;;7.23;1.53;;;;;;;8.43;100.00;101254.19;7401736;19;20398;-63
2021/09/30 05:07:22;;;;;;;4.83;1.03;;;;;;;8.39;100.00;101260.84;7390482;19;20527;-64
2021/09/30 05:09:52;;;;;;;7.33;1.27;;;;;;;8.41;100.00;101261.81;7402048;19;20384;-62
2021/09/30 05:12:22;;;;;;;4.30;0.80;;;;;;;8.39;100.00;101263.41;7394168;19;20425;-61
2021/09/30 05:14:51;;;;;;;6.83;1.63;;;;;;;8.43;100.00;101261.91;7401478;19;20392;-62
2021/09/30 05:17:21;;;;;;;5.37;0.83;;;;;;;8.41;100.00;101274.66;7397162;19;20416;-65
2021/09/30 05:19:50;;;;;;;6.47;1.40;;;;;;;8.43;100.00;101261.91;7401705;19;20591;-63
2021/09/30 05:22:23;;;;;;;6.13;1.20;;;;;;;8.41;100.00;101276.38;7394252;19;20423;-63
2021/09/30 05:24:52;;;;;;;8.17;1.60;;;;;;;8.38;100.00;101274.50;7401155;19;20402;-61
2021/09/30 05:27:21;;;;;;;5.87;1.70;;;;;;;8.35;100.00;101274.31;7396777;19;20423;-62
2021/09/30 05:29:51;;;;;;;5.00;1.17;;;;;;;8.30;100.00;101278.31;7402682;19;20388;-64
2021/09/30 05:32:20;;;;;;;5.63;1.80;;;;;;;8.32;100.00;101287.88;7393491;19;20411;-64
2021/09/30 05:34:50;;;;;;;7.53;1.50;;;;;;;8.30;100.00;101279.19;7400660;19;20391;-61
2021/09/30 05:37:19;;;;;;;10.50;1.40;;;;;;;8.32;100.00;101276.72;7393285;19;20411;-61
2021/09/30 05:39:51;;;;;;;5.40;1.57;;;;;;;8.31;100.00;101288.66;7400784;19;20468;-65
2021/09/30 05:42:23;;;;;;;3.87;1.27;;;;;;;8.34;100.00;101272.53;7393661;19;20442;-61
2021/09/30 05:44:52;;;;;;;5.27;1.87;;;;;;;8.32;100.00;101279.28;7400478;19;20652;-62
2021/09/30 05:47:22;;;;;;;5.40;1.27;;;;;;;8.27;100.00;101267.84;7396507;19;20491;-62
2021/09/30 05:49:51;;;;;;;4.13;1.43;;;;;;;8.32;100.00;101285.28;7400492;19;20384;-61
2021/09/30 05:52:21;;;;;;;7.67;2.53;;;;;;;8.28;100.00;101277.31;7393051;19;20532;-61
2021/09/30 05:54:53;;;;;;;10.80;1.73;;;;;;;8.29;100.00;101280.00;7399583;19;20459;-61
2021/09/30 05:57:22;;;;;;;4.53;0.87;;;;;;;8.27;100.00;101290.97;7383245;19;20419;-64
2021/09/30 05:59:52;;;;;;;3.50;1.00;;;;;;;8.28;100.00;101287.59;7399816;19;20913;-63
2021/09/30 06:10:51;;;;;;;6.10;1.80;;;;;;;8.32;100.00;101300.72;7401736;19;20399;-62
2021/09/30 06:13:31;;;;;;;4.20;1.13;;;;;;;8.32;100.00;101310.13;7401976;19;20503;-63
2021/09/30 06:16:06;;;;;;;7.67;1.60;;;;;;;8.36;100.00;101309.53;7369403;19;20814;-63
2021/09/30 06:18:36;;;;;;;8.00;1.90;;;;;;;8.37;100.00;101309.59;7401963;19;20447;-62
2021/09/30 06:21:06;;;;;;;3.83;1.17;;;;;;;8.34;100.00;101322.28;7394079;19;20384;-62
2021/09/30 06:23:36;;;;;;;4.53;1.30;;;;;;;8.44;100.00;101316.00;7401452;19;20706;-62
2021/09/30 06:26:08;;;;;;;6.17;1.80;;;;;;;8.47;100.00;101318.75;7392673;19;20459;-62
2021/09/30 06:28:37;;;;;;;5.60;1.37;;;;;;;8.39;100.00;101314.84;7401875;19;20423;-64
2021/09/30 06:31:08;;;;;;;7.00;0.90;;;;;;;8.44;100.00;101325.41;7370069;19;20391;-63
2021/09/30 06:33:38;;;;;;;8.40;2.50;;;;;;;8.56;100.00;101333.88;7396948;19;20435;-60
2021/09/30 06:36:07;;;;;;;4.13;0.80;;;;;;;8.49;100.00;101324.91;7396690;19;20395;-61
2021/09/30 06:38:41;;;;;;;2.07;0.90;;;;;;;8.59;100.00;101341.78;7399788;19;20398;-61
2021/09/30 06:41:13;;;;;;;1.83;0.80;;;;;;;8.68;100.00;101351.75;7372147;19;20406;-62
2021/09/30 06:43:43;;;;;;;6.60;1.20;;;;;;;8.83;100.00;101358.56;7399459;19;20427;-62
2021/09/30 06:46:32;;;;;;;7.90;1.57;;;;;;;8.86;100.00;101356.16;7364583;19;20396;-63
2021/09/30 06:49:02;;;;;;;3.63;0.83;;;;;;;8.84;100.00;101366.41;7401209;19;20400;-62
2021/09/30 06:51:33;;;;;;;5.40;1.40;;;;;;;8.91;100.00;101365.03;7392433;19;20470;-62
2021/09/30 06:54:03;;;;;;;8.23;2.27;;;;;;;8.95;100.00;101356.72;7397322;19;20436;-61
2021/09/30 06:56:35;;;;;;;10.50;1.50;;;;;;;8.95;100.00;101361.88;7391303;19;20411;-60
2021/09/30 06:59:15;;;;;;;5.00;1.20;;;;;;;8.96;100.00;101362.75;7400555;19;20431;-62
2021/09/30 07:01:44;;;;;;;4.90;1.60;;;;;;;8.98;100.00;101377.47;7373047;19;20695;-62
2021/09/30 07:04:14;;;;;;;5.03;0.83;;;;;;;9.00;100.00;101375.91;7395049;19;20447;-61
2021/09/30 07:06:44;;;;;;;3.83;1.33;;;;;;;9.05;100.00;101374.47;7367156;19;20450;-62
2021/09/30 07:09:13;;;;;;;2.47;1.23;;;;;;;9.05;100.00;101394.16;7398514;19;20849;-61
2021/09/30 07:11:45;;;;;;;14.07;1.63;;;;;;;9.12;100.00;101403.16;7362414;19;20490;-62
2021/09/30 07:14:15;;;;;;;5.70;1.20;;;;;;;9.07;100.00;101400.28;7401204;19;20925;-61
2021/09/30 07:16:44;;;;;;;5.90;1.63;;;;;;;9.16;100.00;101398.25;7389905;19;20490;-62
2021/09/30 07:19:14;;;;;;;14.53;1.50;;;;;;;9.19;100.00;101402.72;7405176;19;20711;-62
2021/09/30 07:21:44;;;;;;;3.83;1.37;;;;;;;9.21;100.00;101406.25;7376538;19;20486;-60
2021/09/30 07:24:14;;;;;;;3.13;0.90;;;;;;;9.22;100.00;101408.00;7400843;19;21218;-62
2021/09/30 07:26:46;;;;;;;7.53;1.63;;;;;;;9.29;100.00;101399.84;7370241;19;20944;-62
2021/09/30 07:29:16;;;;;;;6.20;1.53;;;;;;;9.30;100.00;101404.22;7403317;19;21200;-62
2021/09/30 07:31:46;;;;;;;8.50;1.47;;;;;;;9.34;100.00;101413.00;7401300;19;20478;-61
2021/09/30 07:34:15;;;;;;;5.50;1.30;;;;;;;9.32;100.00;101410.31;7402433;19;20718;-61
2021/09/30 07:36:47;;;;;;;10.53;1.80;;;;;;;9.32;100.00;101420.63;7361562;19;20414;-62
2021/09/30 07:39:17;;;;;;;6.23;1.00;;;;;;;9.31;100.00;101417.97;7403184;19;20379;-61
2021/09/30 07:41:49;;;;;;;7.57;1.10;;;;;;;9.37;100.00;101417.41;7395736;19;20421;-61
2021/09/30 07:44:19;;;;;;;2.23;1.40;;;;;;;9.28;100.00;101436.69;7401718;19;20435;-60
2021/09/30 07:46:49;;;;;;;2.70;0.90;;;;;;;9.51;100.00;101436.25;7374291;19;20888;-61
2021/09/30 07:49:19;;;;;;;8.77;1.40;;;;;;;9.59;100.00;101435.88;7407097;19;20387;-61
2021/09/30 07:51:49;;;;;;;3.27;1.00;;;;;;;9.66;100.00;101436.22;7368700;19;20734;-61
2021/09/30 07:54:18;;;;;;;4.50;1.07;;;;;;;9.67;100.00;101438.91;7400520;19;20419;-62
2021/09/30 07:56:50;;;;;;;5.27;1.00;;;;;;;9.65;100.00;101434.44;7395482;19;20437;-61
2021/09/30 07:59:20;;;;;;;7.10;1.80;;;;;;;9.56;100.00;101453.75;7404108;19;20405;-61
2021/09/30 08:01:49;;;;;;;1.53;0.80;;;;;;;9.60;100.00;101449.66;7393335;19;20415;-61
2021/09/30 08:04:19;;;;;;;7.03;1.97;;;;;;;9.75;100.00;101436.75;7402002;19;20424;-61
2021/09/30 08:06:49;;;;;;;7.43;1.90;;;;;;;9.79;100.00;101448.13;7377151;19;20431;-62
2021/09/30 08:09:19;;;;;;;12.00;1.97;;;;;;;9.71;100.00;101443.41;7403342;19;20388;-61
2021/09/30 08:11:55;;;;;;;4.33;1.00;;;;;;;9.80;100.00;101455.91;7368420;19;20682;-60
2021/09/30 08:14:25;;;;;;;4.67;1.50;;;;;;;9.92;100.00;101444.53;7400541;19;20415;-60
2021/09/30 08:16:54;;;;;;;7.23;1.07;;;;;;;9.91;100.00;101448.81;7371943;19;20748;-61
2021/09/30 08:19:24;;;;;;;4.97;1.30;;;;;;;9.95;100.00;101461.03;7402914;19;20498;-62
2021/09/30 08:21:54;;;;;;;4.70;1.10;;;;;;;10.01;100.00;101455.34;7391445;19;20430;-61
2021/09/30 08:24:24;;;;;;;2.43;1.30;;;;;;;10.12;100.00;101474.84;7398070;19;20428;-63
2021/09/30 08:26:56;;;;;;;5.93;1.23;;;;;;;10.15;100.00;101469.00;7388946;19;20483;-62
2021/09/30 08:29:25;;;;;;;3.00;1.00;;;;;;;10.04;100.00;101472.69;7402821;19;20388;-61
2021/09/30 08:31:55;;;;;;;5.07;1.30;;;;;;;10.17;100.00;101467.41;7379208;19;20417;-62
2021/09/30 08:34:24;;;;;;;5.13;1.20;;;;;;;10.17;100.00;101485.44;7400584;19;20428;-63
2021/09/30 08:36:54;;;;;;;4.70;1.00;;;;;;;10.15;100.00;101488.75;7387633;19;20490;-63
2021/09/30 08:39:23;;;;;;;6.17;1.10;;;;;;;10.30;100.00;101479.25;7402325;19;20383;-61
2021/09/30 08:41:56;;;;;;;2.37;0.77;;;;;;;10.27;100.00;101476.53;7387047;19;20434;-62
2021/09/30 08:44:26;;;;;;;2.40;0.83;;;;;;;10.35;100.00;101482.97;7400678;19;20430;-63
2021/09/30 08:46:56;;;;;;;2.30;0.87;;;;;;;10.54;100.00;101471.09;7397937;19;20420;-62
2021/09/30 08:49:27;;;;;;;5.80;1.10;;;;;;;10.71;100.00;101484.03;7402094;19;20386;-61
2021/09/30 08:51:56;;;;;;;3.63;1.20;;;;;;;10.82;100.00;101484.59;7368386;19;20692;-63
2021/09/30 08:54:26;;;;;;;6.60;2.40;;;;;;;10.70;100.00;101484.81;7403176;19;20419;-62
2021/09/30 08:56:59;;;;;;;39.47;15.97;;;;;;;10.88;100.00;101479.75;7394933;19;20483;-63
2021/09/30 08:59:31;;;;;;;6.30;1.93;;;;;;;10.93;100.00;101492.06;7402325;19;20390;-62
2021/09/30 09:02:11;;;;;;;12.03;4.73;;;;;;;11.04;100.00;101496.91;7395573;19;20481;-62
2021/09/30 09:04:53;;;;;;;31.97;11.13;;;;;;;11.05;100.00;101506.44;7400690;19;20412;-62
2021/09/30 09:07:26;;;;;;;15.43;5.73;;;;;;;11.09;100.00;101508.38;7370610;19;20492;-63
2021/09/30 09:09:56;;;;;;;14.30;4.43;;;;;;;11.16;100.00;101509.56;7404502;19;20698;-61
2021/09/30 09:12:31;;;;;;;52.50;22.57;;;;;;;11.56;100.00;101521.94;7394591;19;20440;-62
2021/09/30 09:15:02;;;;;;;13.83;5.83;;;;;;;11.17;100.00;101530.31;7404827;19;20412;-62
2021/09/30 09:17:31;;;;;;;29.23;11.10;;;;;;;11.31;100.00;101527.53;7397340;19;20482;-62
2021/09/30 09:20:03;;;;;;;36.83;14.80;;;;;;;11.53;100.00;101515.72;7401667;19;20395;-62
2021/09/30 09:22:35;;;;;;;9.83;3.73;;;;;;;11.33;100.00;101525.91;7391753;19;20482;-62
2021/09/30 09:25:09;;;;;;;13.67;6.07;;;;;;;11.30;100.00;101530.94;7401044;19;20513;-63
2021/09/30 09:27:55;;;;;;;32.60;12.13;;;;;;;11.88;100.00;101514.88;7393295;19;20952;-62
2021/09/30 09:30:31;;;;;;;23.17;6.83;;;;;;;11.95;100.00;101515.16;7401397;19;20391;-62
2021/09/30 09:33:02;;;;;;;15.03;5.63;;;;;;;12.11;100.00;101514.22;7393612;19;20419;-63
2021/09/30 09:35:32;;;;;;;9.83;3.80;;;;;;;12.23;100.00;101509.63;7399488;19;20394;-62
2021/09/30 09:38:09;;;;;;;27.33;5.30;;;;;;;12.46;100.00;101511.53;7394350;19;20732;-63
2021/09/30 09:40:39;;;;;;;5.90;1.40;;;;;;;12.67;100.00;101501.25;7401016;19;20392;-62
2021/09/30 09:43:29;;;;;;;8.93;2.67;;;;;;;12.88;100.00;101498.75;7363443;19;20427;-63
2021/09/30 09:45:59;;;;;;;13.00;3.80;;;;;;;13.01;100.00;101507.94;7385273;19;20392;-63
2021/09/30 09:48:32;;;;;;;9.33;3.93;;;;;;;12.70;100.00;101527.28;7400585;19;20412;-62
2021/09/30 09:51:02;;;;;;;11.13;2.80;;;;;;;12.63;100.00;101520.06;7397993;19;20846;-62
2021/09/30 09:53:33;;;;;;;7.83;2.90;;;;;;;12.96;100.00;101530.16;7399298;19;20415;-62
2021/09/30 09:56:18;;;;;;;12.90;4.87;;;;;;;12.68;100.00;101528.91;7385361;19;20856;-61
2021/09/30 09:58:53;;;;;;;23.43;7.40;;;;;;;12.55;100.00;101525.78;7400039;19;20404;-61
2021/09/30 10:01:25;;;;;;;11.90;4.40;;;;;;;12.48;100.00;101533.16;7398964;19;20426;-63
2021/09/30 10:04:00;;;;;;;6.87;2.00;;;;;;;12.44;100.00;101539.91;7398852;19;20483;-62
2021/09/30 10:06:32;;;;;;;5.50;1.70;;;;;;;12.41;100.00;101544.97;7395103;19;20423;-62
2021/09/30 10:09:03;;;;;;;17.20;4.77;;;;;;;12.51;100.00;101562.66;7399685;19;20388;-63
2021/09/30 10:11:32;;;;;;;9.27;3.77;;;;;;;12.76;100.00;101550.00;7393380;19;20470;-61
2021/09/30 10:14:06;;;;;;;6.93;3.60;;;;;;;12.61;100.00;101558.81;7398557;19;20419;-61
2021/09/30 10:16:37;;;;;;;15.70;2.50;;;;;;;12.65;100.00;101554.66;7394855;19;20422;-63
2021/09/30 10:19:08;;;;;;;12.10;3.73;;;;;;;12.62;100.00;101559.72;7399489;19;20391;-60
2021/09/30 10:21:39;;;;;;;12.07;3.37;;;;;;;12.78;100.00;101556.13;7396061;19;20421;-62
2021/09/30 10:24:15;;;;;;;8.60;2.67;;;;;;;12.89;100.00;101554.00;7398108;19;20435;-61
2021/09/30 10:26:52;;;;;;;17.60;2.87;;;;;;;12.74;100.00;101560.28;7392071;19;20419;-61
2021/09/30 10:29:43;;;;;;;28.57;9.80;;;;;;;12.70;100.00;101571.28;7399378;19;20395;-61
2021/09/30 10:32:13;;;;;;;13.73;6.03;;;;;;;12.70;100.00;101558.34;7393003;19;20426;-62
2021/09/30 10:34:45;;;;;;;13.33;5.33;;;;;;;12.96;100.00;101569.00;7399307;19;20392;-63
2021/09/30 10:37:25;;;;;;;9.37;3.30;;;;;;;13.00;100.00;101570.91;7391648;19;20407;-62
2021/09/30 10:40:15;;;;;;;18.13;7.37;;;;;;;12.96;100.00;101566.41;7399285;19;20443;-61
2021/09/30 10:42:53;;;;;;;7.40;3.00;;;;;;;13.10;100.00;101565.34;7390967;19;20779;-62
2021/09/30 10:45:26;;;;;;;13.50;5.30;;;;;;;13.12;100.00;101572.28;7397441;19;20387;-61
2021/09/30 10:48:06;;;;;;;12.93;3.87;;;;;;;13.20;100.00;101566.63;7387232;19;20478;-62
2021/09/30 10:50:53;;;;;;;10.30;2.40;;;;;;;13.39;100.00;101582.97;7406233;19;20404;-62
2021/09/30 10:53:58;;;;;;;12.90;4.10;;;;;;;13.28;100.00;101574.72;7404438;19;20417;-61
2021/09/30 10:56:43;;;;;;;12.50;3.67;;;;;;;13.17;100.00;101573.38;7398804;19;20964;-62
2021/09/30 10:59:43;;;;;;;8.43;3.17;;;;;;;13.14;100.00;101570.63;7406204;19;20390;-61
2021/09/30 11:02:15;;;;;;;10.70;2.67;;;;;;;13.12;100.00;101580.06;7403730;19;20522;-61
2021/09/30 11:05:04;;;;;;;5.03;1.87;;;;;;;12.65;100.00;101596.06;7409181;19;20403;-61
2021/09/30 11:07:38;;;;;;;9.67;2.23;;;;;;;12.28;100.00;101603.91;7398778;19;20923;-60
2021/09/30 11:10:18;;;;;;;15.50;3.60;;;;;;;12.20;100.00;101604.34;7406036;19;20372;-60
2021/09/30 11:13:23;;;;;;;13.80;2.90;;;;;;;12.17;100.00;101620.59;7398007;19;20422;-61
2021/09/30 11:16:03;;;;;;;17.60;3.60;;;;;;;11.97;100.00;101620.47;7407954;19;20391;-60
2021/09/30 11:18:50;;;;;;;15.00;3.30;;;;;;;12.08;100.00;101622.72;7405300;19;20898;-60
2021/09/30 11:21:44;;;;;;;10.50;2.70;;;;;;;12.09;100.00;101614.13;7399615;19;20459;-62
2021/09/30 11:24:25;;;;;;;5.53;2.03;;;;;;;12.21;100.00;101614.72;7403081;19;20447;-62
2021/09/30 11:27:15;;;;;;;9.30;2.07;;;;;;;12.32;100.00;101620.44;7398146;19;20478;-60
2021/09/30 11:29:44;;;;;;;12.17;3.47;;;;;;;12.59;100.00;101613.91;7405351;19;20403;-61
2021/09/30 11:32:35;;;;;;;8.70;2.80;;;;;;;12.74;100.00;101606.88;7398114;19;20873;-61
2021/09/30 11:35:11;;;;;;;14.30;3.40;;;;;;;13.13;100.00;101612.91;7404870;19;20391;-61
2021/09/30 11:37:45;;;;;;;5.60;1.73;;;;;;;13.17;100.00;101597.56;7397466;19;20402;-62
2021/09/30 11:40:20;;;;;;;21.13;3.27;;;;;;;13.37;100.00;101584.59;7405017;19;20399;-62
2021/09/30 11:42:53;;;;;;;10.77;2.07;;;;;;;13.43;100.00;101597.81;7399124;19;20450;-61
2021/09/30 11:45:26;;;;;;;12.70;2.00;;;;;;;13.62;100.00;101589.19;7402906;19;20455;-61
2021/09/30 11:48:04;;;;;;;10.63;1.83;;;;;;;13.91;100.00;101594.69;7378290;19;20395;-61
2021/09/30 11:50:36;;;;;;;5.80;1.47;;;;;;;13.90;100.00;101597.25;7404594;19;20661;-60
2021/09/30 11:53:11;;;;;;;7.33;1.70;;;;;;;13.77;100.00;101606.19;7396217;19;20434;-61
2021/09/30 11:55:44;;;;;;;16.73;7.43;;;;;;;13.90;100.00;101616.25;7403627;19;20392;-61
2021/09/30 11:58:16;;;;;;;14.13;2.13;;;;;;;13.81;100.00;101610.72;7397353;19;20453;-61
2021/09/30 12:00:48;;;;;;;16.07;1.93;;;;;;;13.83;100.00;101622.03;7406924;19;20411;-60
2021/09/30 12:03:21;;;;;;;9.57;1.97;;;;;;;13.79;100.00;101619.25;7402030;19;20418;-60
2021/09/30 12:05:57;;;;;;;6.47;2.00;;;;;;;13.84;100.00;101623.78;7401899;19;20388;-61
2021/09/30 12:08:26;;;;;;;7.63;1.60;;;;;;;13.75;100.00;101618.22;7403708;19;20421;-61
2021/09/30 12:11:03;;;;;;;3.17;1.00;;;;;;;13.68;100.00;101640.41;7396910;19;20469;-60
2021/09/30 12:13:33;;;;;;;4.70;1.50;;;;;;;13.87;100.00;101634.31;7402414;19;20411;-60
2021/09/30 12:16:08;;;;;;;9.93;2.17;;;;;;;14.19;100.00;101636.44;7397384;19;20403;-60
2021/09/30 12:18:37;;;;;;;4.80;1.33;;;;;;;14.31;100.00;101630.91;7403465;19;20398;-62
2021/09/30 12:21:09;;;;;;;15.37;2.60;;;;;;;14.05;100.00;101638.47;7397847;19;20985;-60
2021/09/30 12:23:39;;;;;;;5.40;1.10;;;;;;;14.22;100.00;101640.88;7404588;19;20441;-61
2021/09/30 12:26:13;;;;;;;5.90;1.47;;;;;;;14.75;100.00;101653.38;7396447;19;20657;-60
2021/09/30 12:28:46;;;;;;;8.30;1.33;;;;;;;15.06;100.00;101649.34;7403199;19;20384;-60
2021/09/30 12:31:16;;;;;;;8.53;2.00;;;;;;;15.62;100.00;101640.94;7397767;19;20432;-60
2021/09/30 12:33:47;;;;;;;8.00;1.30;;;;;;;15.40;100.00;101655.81;7401983;19;20962;-59
2021/09/30 12:36:20;;;;;;;6.27;1.23;;;;;;;15.01;100.00;101671.69;7395866;19;20430;-60
2021/09/30 12:39:00;;;;;;;6.80;1.60;;;;;;;14.72;100.00;101639.41;7402808;19;20445;-60
2021/09/30 12:41:30;;;;;;;5.93;2.07;;;;;;;15.37;100.00;101666.06;7395636;19;20411;-60
2021/09/30 12:44:12;;;;;;;10.67;2.67;;;;;;;15.05;100.00;101657.97;7401372;19;20479;-60
2021/09/30 12:46:46;;;;;;;8.33;2.20;;;;;;;15.04;100.00;101666.59;7395946;19;20739;-59
2021/09/30 12:49:16;;;;;;;5.70;1.70;;;;;;;15.30;100.00;101661.47;7402641;19;20395;-60
2021/09/30 12:51:48;;;;;;;9.27;2.13;;;;;;;15.38;100.00;101662.63;7396002;19;20423;-59
2021/09/30 12:54:26;;;;;;;3.97;1.47;;;;;;;15.39;100.00;101664.44;7400715;19;20426;-59
2021/09/30 12:56:56;;;;;;;12.63;2.10;;;;;;;15.04;100.00;101653.59;7394925;19;20430;-60
2021/09/30 12:59:27;;;;;;;8.63;1.53;;;;;;;14.57;100.00;101654.41;7402169;19;20382;-59
2021/09/30 13:02:05;;;;;;;13.33;1.83;;;;;;;15.01;100.00;101653.50;7396500;19;20433;-59
2021/09/30 13:04:36;;;;;;;6.30;1.63;;;;;;;14.81;100.00;101657.09;7400196;19;20415;-60
2021/09/30 13:07:09;;;;;;;9.10;2.00;;;;;;;14.77;100.00;101656.94;7385852;19;20419;-59
2021/09/30 13:09:40;;;;;;;11.43;3.90;;;;;;;14.77;100.00;101662.13;7402163;19;20408;-58
2021/09/30 13:12:14;;;;;;;11.47;2.00;;;;;;;14.65;100.00;101658.19;7372508;19;20427;-60
2021/09/30 13:14:48;;;;;;;18.40;8.23;;;;;;;14.53;100.00;101655.09;7400967;19;20392;-61
2021/09/30 13:17:19;;;;;;;19.23;7.00;;;;;;;14.41;100.00;101658.97;7395628;19;20427;-60
2021/09/30 13:19:51;;;;;;;31.43;12.40;;;;;;;14.84;100.00;101664.13;7401425;19;20398;-60
2021/09/30 13:22:25;;;;;;;20.43;6.37;;;;;;;15.25;100.00;101667.41;7392313;19;20427;-60
2021/09/30 13:24:56;;;;;;;7.87;2.07;;;;;;;14.86;100.00;101662.47;7401285;19;20389;-60
2021/09/30 13:27:27;;;;;;;22.20;5.70;;;;;;;14.69;100.00;101660.09;7393056;19;20418;-60
2021/09/30 13:29:57;;;;;;;14.43;6.53;;;;;;;14.67;100.00;101656.53;7401621;19;20392;-60
2021/09/30 13:32:27;;;;;;;13.10;3.83;;;;;;;15.34;100.00;101660.78;7395542;19;20440;-60
2021/09/30 13:34:58;;;;;;;16.93;4.80;;;;;;;15.17;100.00;101658.44;7401026;19;20857;-60
2021/09/30 13:37:30;;;;;;;6.53;2.03;;;;;;;15.24;100.00;101656.97;7394129;19;20499;-60
2021/09/30 13:40:00;;;;;;;11.87;3.17;;;;;;;15.14;100.00;101653.13;7401164;19;20870;-60
2021/09/30 13:42:32;;;;;;;24.13;9.83;;;;;;;15.32;100.00;101647.72;7393843;19;20447;-59
2021/09/30 13:45:01;;;;;;;19.77;7.10;;;;;;;15.27;100.00;101653.59;7400535;19;20716;-60
2021/09/30 13:47:31;;;;;;;7.03;1.97;;;;;;;15.11;100.00;101642.59;7394228;19;20487;-60
2021/09/30 13:50:01;;;;;;;14.50;5.67;;;;;;;15.07;100.00;101651.16;7400423;19;20385;-59
2021/09/30 13:52:33;;;;;;;12.90;3.60;;;;;;;14.96;100.00;101658.50;7394750;19;20500;-59
2021/09/30 13:55:03;;;;;;;15.50;6.50;;;;;;;15.09;100.00;101649.47;7399489;19;20861;-57
2021/09/30 13:57:34;;;;;;;15.03;4.80;;;;;;;14.89;100.00;101647.00;7392700;19;20483;-57
2021/09/30 14:00:05;;;;;;;7.30;1.87;;;;;;;14.93;100.00;101638.50;7401265;19;20400;-60
2021/09/30 14:02:41;;;;;;;19.30;4.93;;;;;;;14.79;100.00;101637.09;7394253;19;20422;-60
2021/09/30 14:05:12;;;;;;;6.40;1.70;;;;;;;14.84;100.00;101623.47;7400653;19;20706;-59
2021/09/30 14:07:44;;;;;;;12.13;3.87;;;;;;;14.52;100.00;101640.34;7395108;19;20909;-60
2021/09/30 14:10:16;;;;;;;11.93;3.27;;;;;;;14.58;100.00;101630.22;7400960;19;20868;-59